Time;durP1;ratioP1;P1;durP2;ratioP2;P2;SDS_P1;SDS_P2;PMS_P1;PMS_P2;Temp;Humidity;BMP_temperature;BMP_pressure;BME280_temperature;BME280_humidity;BME280_pressure;Samples;Min_cycle;Max_cycle;Signal;HPM_P1;HPM_P2
2022/03/23 00:00:26;;;;;;;0.80;0.80;;;2.60;99.90;;;;;;5202459;28;20044;-77
2022/03/23 00:03:01;;;;;;;0.85;0.85;;;2.60;99.90;;;;;;5185310;28;20379;-77
2022/03/23 00:05:38;;;;;;;1.00;1.00;;;2.50;99.90;;;;;;5182373;28;20050;-77
2022/03/23 00:08:09;;;;;;;0.60;0.60;;;2.40;99.90;;;;;;5185846;28;20048;-77
2022/03/23 00:10:46;;;;;;;0.90;0.90;;;2.40;99.90;;;;;;5203993;28;20013;-78
2022/03/23 00:13:18;;;;;;;0.80;0.80;;;2.30;99.90;;;;;;5195112;28;20021;-77
2022/03/23 00:15:55;;;;;;;0.85;0.85;;;2.20;99.90;;;;;;5201183;28;20552;-77
2022/03/23 00:18:32;;;;;;;0.63;0.63;;;2.20;99.90;;;;;;5226209;28;20491;-77
2022/03/23 00:21:04;;;;;;;1.17;1.17;;;2.10;99.90;;;;;;5224219;28;20058;-77
2022/03/23 00:23:35;;;;;;;0.73;0.73;;;2.20;99.90;;;;;;5204993;28;20023;-77
2022/03/23 00:26:12;;;;;;;0.68;0.68;;;2.10;99.90;;;;;;5218008;28;20039;-78
2022/03/23 00:28:48;;;;;;;0.73;0.73;;;2.10;99.90;;;;;;5179478;28;20454;-78
2022/03/23 00:31:20;;;;;;;1.15;1.15;;;2.00;99.90;;;;;;5214212;28;20029;-79
2022/03/23 00:33:54;;;;;;;1.05;1.05;;;1.90;99.90;;;;;;5195858;28;20040;-77
2022/03/23 00:36:25;;;;;;;1.38;1.38;;;1.90;99.90;;;;;;5202254;28;20037;-77
2022/03/23 00:39:02;;;;;;;0.75;0.73;;;1.80;99.90;;;;;;5207789;28;20035;-78
2022/03/23 00:41:34;;;;;;;0.80;0.80;;;1.70;99.90;;;;;;5199512;28;20016;-77
2022/03/23 00:44:06;;;;;;;1.13;1.13;;;1.60;99.90;;;;;;5181870;28;20053;-77
2022/03/23 00:46:38;;;;;;;1.00;1.00;;;1.60;99.90;;;;;;5219518;28;20023;-77
2022/03/23 00:49:10;;;;;;;1.33;1.33;;;1.50;99.90;;;;;;5185020;28;20442;-76
2022/03/23 00:51:44;;;;;;;0.82;0.82;;;1.60;99.90;;;;;;5168693;28;20037;-76
2022/03/23 00:54:16;;;;;;;0.63;0.63;;;1.60;99.90;;;;;;5215463;28;20485;-78
2022/03/23 00:56:53;;;;;;;0.70;0.70;;;1.80;99.90;;;;;;5211544;28;20033;-77
2022/03/23 00:59:25;;;;;;;0.95;0.95;;;1.90;99.90;;;;;;5184236;28;20037;-79
2022/03/23 01:02:02;;;;;;;2.20;2.10;;;1.90;99.90;;;;;;5193019;28;20049;-77
2022/03/23 01:04:37;;;;;;;0.85;0.85;;;1.80;99.90;;;;;;5179856;28;20080;-77
2022/03/23 01:07:18;;;;;;;2.65;1.63;;;1.70;99.90;;;;;;5199907;28;20037;-76
2022/03/23 01:09:53;;;;;;;0.70;0.70;;;1.70;99.90;;;;;;5203588;28;20043;-76
2022/03/23 01:12:24;;;;;;;0.95;0.95;;;1.70;99.90;;;;;;5200688;28;20025;-77
2022/03/23 01:14:59;;;;;;;0.70;0.70;;;1.70;99.90;;;;;;5186207;28;20022;-76
2022/03/23 01:17:32;;;;;;;0.60;0.60;;;1.80;99.90;;;;;;5209535;28;20017;-77
2022/03/23 01:20:09;;;;;;;0.82;0.82;;;1.90;99.90;;;;;;5188885;28;20047;-76
2022/03/23 01:22:45;;;;;;;0.60;0.60;;;2.00;99.90;;;;;;5181937;28;20033;-77
2022/03/23 01:25:21;;;;;;;0.82;0.82;;;2.10;99.90;;;;;;5218046;28;20043;-77
2022/03/23 01:27:53;;;;;;;1.23;1.23;;;2.10;99.90;;;;;;5189728;28;20025;-77
2022/03/23 01:30:28;;;;;;;0.85;0.85;;;2.10;99.90;;;;;;5198526;28;20035;-76
2022/03/23 01:33:02;;;;;;;1.98;1.67;;;2.20;99.90;;;;;;5180346;28;20044;-77
2022/03/23 01:35:36;;;;;;;0.70;0.70;;;2.20;99.90;;;;;;5204100;28;20565;-78
2022/03/23 01:38:11;;;;;;;0.80;0.80;;;2.20;99.90;;;;;;5186089;28;20029;-76
2022/03/23 01:40:43;;;;;;;0.70;0.70;;;2.20;99.90;;;;;;5185264;28;20060;-76
2022/03/23 01:43:20;;;;;;;0.55;0.55;;;2.10;99.90;;;;;;5199279;28;20033;-76
2022/03/23 01:45:57;;;;;;;0.40;0.40;;;2.10;99.90;;;;;;5213842;28;20052;-78
2022/03/23 01:48:31;;;;;;;0.65;0.65;;;2.00;99.90;;;;;;5214877;28;20041;-77
2022/03/23 01:51:04;;;;;;;1.90;1.80;;;2.00;99.90;;;;;;5197588;28;20047;-77
2022/03/23 01:53:37;;;;;;;1.70;1.67;;;2.00;99.90;;;;;;5189112;28;20033;-77
2022/03/23 01:56:12;;;;;;;0.82;0.82;;;1.90;99.90;;;;;;5195884;28;20017;-77
2022/03/23 01:58:43;;;;;;;;;;;1.90;99.90;;;;;;5200541;28;20051;-78
2022/03/23 02:01:15;;;;;;;0.70;0.70;;;1.90;99.90;;;;;;5183382;28;19913;-78
2022/03/23 02:03:47;;;;;;;0.80;0.80;;;1.90;99.90;;;;;;5183583;28;20025;-77
2022/03/23 02:06:21;;;;;;;0.80;0.80;;;1.90;99.90;;;;;;5202731;28;20257;-77
2022/03/23 02:08:52;;;;;;;0.80;0.80;;;1.90;99.90;;;;;;5202493;28;20059;-76
2022/03/23 02:11:29;;;;;;;1.60;1.55;;;1.80;99.90;;;;;;5181535;28;20043;-76
2022/03/23 02:14:05;;;;;;;0.70;0.70;;;1.70;99.90;;;;;;5195671;28;20025;-76
2022/03/23 02:16:51;;;;;;;0.52;0.52;;;1.60;99.90;;;;;;5214180;28;20029;-78
2022/03/23 02:19:26;;;;;;;0.80;0.80;;;1.50;99.90;;;;;;5196098;28;20021;-76
2022/03/23 02:22:02;;;;;;;0.63;0.63;;;1.30;99.90;;;;;;5161924;28;20040;-77
2022/03/23 02:24:37;;;;;;;0.98;0.98;;;1.20;99.90;;;;;;5197935;28;20103;-77
2022/03/23 02:27:12;;;;;;;0.90;0.90;;;1.20;99.90;;;;;;5193150;28;20036;-78
2022/03/23 02:29:44;;;;;;;0.80;0.80;;;1.20;99.90;;;;;;5200380;28;20025;-78
2022/03/23 02:32:19;;;;;;;0.88;0.88;;;1.30;99.90;;;;;;5219962;28;20509;-77
2022/03/23 02:34:50;;;;;;;;;;;1.40;99.90;;;;;;5222536;28;20029;-77
2022/03/23 02:37:26;;;;;;;1.38;1.38;;;1.30;99.90;;;;;;5185664;28;19923;-76
2022/03/23 02:39:58;;;;;;;0.80;0.80;;;1.30;99.90;;;;;;5199722;28;20036;-78
2022/03/23 02:42:32;;;;;;;1.38;0.88;;;1.30;99.90;;;;;;5203824;28;20076;-77
2022/03/23 02:45:10;;;;;;;0.80;0.80;;;1.10;99.90;;;;;;5192713;28;20049;-78
2022/03/23 02:47:42;;;;;;;0.70;0.70;;;1.00;99.90;;;;;;5196808;28;20481;-76
2022/03/23 02:50:26;;;;;;;0.85;0.85;;;0.90;99.90;;;;;;5196408;28;20037;-76
2022/03/23 03:02:21;;;;;;;1.75;1.65;;;0.70;99.90;;;;;;5220484;28;20333;-77
2022/03/23 03:05:00;;;;;;;0.60;0.60;;;0.80;99.90;;;;;;5214257;28;20045;-76
2022/03/23 03:10:33;;;;;;;0.60;0.60;;;0.70;99.90;;;;;;5199250;28;20016;-76
2022/03/23 03:13:07;;;;;;;0.98;0.98;;;0.80;99.90;;;;;;5202993;28;20034;-77
2022/03/23 03:15:38;;;;;;;0.90;0.90;;;0.80;99.90;;;;;;5189871;28;20330;-78
2022/03/23 03:18:10;;;;;;;1.65;1.55;;;0.90;99.90;;;;;;5196960;28;20063;-78
2022/03/23 03:20:44;;;;;;;0.70;0.70;;;1.00;99.90;;;;;;5207465;28;20037;-76
2022/03/23 03:23:22;;;;;;;2.00;1.90;;;1.00;99.90;;;;;;5182683;28;20041;-76
2022/03/23 03:26:06;;;;;;;0.98;0.98;;;1.10;99.90;;;;;;5197868;28;20542;-76
2022/03/23 03:28:39;;;;;;;;;;;1.10;99.90;;;;;;5190813;28;20029;-78
2022/03/23 03:31:16;;;;;;;0.80;0.80;;;1.10;99.90;;;;;;5205835;28;19905;-76
2022/03/23 03:33:50;;;;;;;0.75;0.75;;;1.20;99.90;;;;;;5195155;28;20036;-76
2022/03/23 03:36:22;;;;;;;1.00;1.00;;;1.20;99.90;;;;;;5202034;28;20245;-77
2022/03/23 03:38:54;;;;;;;1.08;1.08;;;1.30;99.90;;;;;;5211821;28;20037;-77
2022/03/23 03:41:28;;;;;;;0.60;0.60;;;1.30;99.90;;;;;;5213670;28;20021;-76
2022/03/23 03:44:00;;;;;;;;;;;1.40;99.90;;;;;;5200352;28;20017;-77
2022/03/23 03:46:34;;;;;;;0.85;0.85;;;1.40;99.90;;;;;;5208230;28;19912;-77
2022/03/23 03:49:06;;;;;;;0.93;0.93;;;1.40;99.90;;;;;;5196268;28;20047;-78
2022/03/23 03:51:41;;;;;;;1.35;1.35;;;1.20;99.90;;;;;;5190498;28;20021;-75
2022/03/23 03:54:12;;;;;;;0.90;0.90;;;1.20;99.90;;;;;;5204179;28;20503;-78
2022/03/23 03:56:47;;;;;;;0.70;0.70;;;1.10;99.90;;;;;;5199136;28;20020;-77
2022/03/23 03:59:22;;;;;;;1.48;1.38;;;1.00;99.90;;;;;;5195209;28;20021;-75
2022/03/23 04:01:54;;;;;;;1.73;1.63;;;0.90;99.90;;;;;;5192398;28;20017;-76
2022/03/23 04:04:33;;;;;;;1.77;1.67;;;0.80;99.90;;;;;;5184743;28;20021;-77
2022/03/23 04:07:08;;;;;;;1.00;1.00;;;0.70;99.90;;;;;;5203718;28;20012;-76
2022/03/23 04:09:41;;;;;;;0.80;0.80;;;0.70;99.90;;;;;;5192014;28;20032;-76
2022/03/23 04:12:18;;;;;;;0.63;0.63;;;0.60;99.90;;;;;;5196628;28;20033;-76
2022/03/23 04:14:55;;;;;;;0.60;0.60;;;0.60;99.90;;;;;;5189697;28;20041;-76
2022/03/23 04:17:29;;;;;;;0.63;0.63;;;0.70;99.90;;;;;;5186679;28;20032;-77
2022/03/23 04:20:04;;;;;;;1.25;1.25;;;0.60;99.90;;;;;;5166589;28;20032;-76
2022/03/23 04:22:41;;;;;;;0.85;0.85;;;0.60;99.90;;;;;;5181412;28;20042;-76
2022/03/23 04:25:19;;;;;;;1.63;1.60;;;0.40;99.90;;;;;;5209314;28;20039;-75
2022/03/23 04:27:58;;;;;;;0.65;0.65;;;0.20;99.90;;;;;;5187585;28;20026;-77
2022/03/23 04:30:31;;;;;;;0.80;0.80;;;0.20;99.90;;;;;;5197942;28;20029;-76
2022/03/23 04:33:03;;;;;;;0.68;0.68;;;0.10;99.90;;;;;;5175163;28;20041;-78
2022/03/23 04:35:37;;;;;;;1.45;1.38;;;0.00;99.90;;;;;;5212796;28;20084;-78
2022/03/23 04:38:11;;;;;;;0.50;0.50;;;0.00;99.90;;;;;;5198766;28;20027;-77
2022/03/23 04:40:45;;;;;;;0.50;0.50;;;-0.10;99.90;;;;;;5209730;28;20533;-77
2022/03/23 04:43:16;;;;;;;1.23;1.23;;;-0.10;99.90;;;;;;5202679;28;20064;-78
2022/03/23 04:45:50;;;;;;;0.70;0.70;;;-0.10;99.90;;;;;;5201471;28;20040;-76
2022/03/23 04:48:22;;;;;;;1.10;1.05;;;-0.20;99.90;;;;;;5168006;28;20049;-77
2022/03/23 04:50:57;;;;;;;0.43;0.43;;;-0.20;99.90;;;;;;5206253;28;20036;-76
2022/03/23 04:53:32;;;;;;;0.73;0.73;;;-0.20;99.90;;;;;;5199436;28;20037;-76
2022/03/23 04:56:04;;;;;;;0.80;0.80;;;-0.20;99.90;;;;;;5193046;28;20044;-77
2022/03/23 04:58:42;;;;;;;0.77;0.77;;;-0.20;99.90;;;;;;5212085;28;20033;-76
2022/03/23 05:01:19;;;;;;;0.80;0.80;;;-0.20;99.90;;;;;;5180141;28;20025;-76
2022/03/23 05:03:54;;;;;;;0.75;0.75;;;-0.10;99.90;;;;;;5210334;28;20040;-76
2022/03/23 05:06:25;;;;;;;;;;;0.00;99.90;;;;;;5193638;28;20064;-77
2022/03/23 05:08:57;;;;;;;0.65;0.65;;;0.10;99.90;;;;;;5225853;28;19923;-76
2022/03/23 05:11:31;;;;;;;0.88;0.88;;;0.30;99.90;;;;;;5201873;28;20346;-79
2022/03/23 05:14:05;;;;;;;;;;;0.60;99.90;;;;;;5201016;28;20032;-78
2022/03/23 05:16:38;;;;;;;0.70;0.70;;;0.70;99.90;;;;;;5216593;28;20875;-77
2022/03/23 05:19:13;;;;;;;1.58;1.58;;;0.80;99.90;;;;;;5211282;28;20025;-76
2022/03/23 05:21:49;;;;;;;0.98;0.98;;;0.90;99.90;;;;;;5183832;28;20030;-78
2022/03/23 05:24:23;;;;;;;1.45;1.45;;;1.00;99.90;;;;;;5199890;28;20025;-79
2022/03/23 05:27:00;;;;;;;1.70;1.60;;;1.10;99.90;;;;;;5210848;28;20047;-79
2022/03/23 05:29:37;;;;;;;0.75;0.75;;;1.20;99.90;;;;;;5218915;28;20025;-78
2022/03/23 05:32:16;;;;;;;1.35;1.35;;;1.40;99.90;;;;;;5190602;28;20028;-77
2022/03/23 05:34:51;;;;;;;1.17;1.17;;;1.50;99.90;;;;;;5208087;28;20038;-76
2022/03/23 05:37:25;;;;;;;0.80;0.80;;;1.50;99.90;;;;;;5192580;28;20033;-76
2022/03/23 05:39:57;;;;;;;0.88;0.88;;;1.50;99.90;;;;;;5193390;28;20025;-76
2022/03/23 05:42:40;;;;;;;0.80;0.80;;;1.70;99.90;;;;;;5197377;28;20031;-78
2022/03/23 05:45:16;;;;;;;0.77;0.77;;;1.90;99.90;;;;;;5200312;28;20021;-78
2022/03/23 05:47:53;;;;;;;0.55;0.55;;;2.20;99.90;;;;;;5188247;28;20372;-76
2022/03/23 05:50:25;;;;;;;0.80;0.80;;;2.40;99.90;;;;;;5206828;28;20341;-80
2022/03/23 05:52:56;;;;;;;1.15;1.15;;;2.60;99.90;;;;;;5207520;28;20384;-79
2022/03/23 05:55:28;;;;;;;0.80;0.80;;;2.90;99.90;;;;;;5206779;28;20024;-78
2022/03/23 05:58:00;;;;;;;0.95;0.95;;;3.10;99.90;;;;;;5205013;28;20619;-78
2022/03/23 06:00:32;;;;;;;1.15;1.15;;;3.40;99.90;;;;;;5216692;28;20561;-76
2022/03/23 06:03:04;;;;;;;1.23;1.23;;;3.80;99.90;;;;;;5196928;28;20403;-73
2022/03/23 06:05:36;;;;;;;0.70;0.70;;;4.10;99.90;;;;;;5199144;28;20045;-77
2022/03/23 06:08:10;;;;;;;1.70;1.58;;;4.30;99.90;;;;;;5174896;28;20404;-77
2022/03/23 06:10:49;;;;;;;1.50;1.42;;;4.60;99.90;;;;;;5203148;28;20024;-77
2022/03/23 06:13:23;;;;;;;1.05;1.05;;;4.90;99.90;;;;;;5182568;28;20033;-77
2022/03/23 06:15:55;;;;;;;1.00;1.00;;;5.30;99.90;;;;;;5213656;28;20037;-78
2022/03/23 06:18:27;;;;;;;1.10;1.10;;;5.80;99.90;;;;;;5193149;28;20355;-77
2022/03/23 06:21:01;;;;;;;1.27;1.27;;;6.30;99.90;;;;;;5179685;28;20025;-77
2022/03/23 06:23:33;;;;;;;0.93;0.93;;;6.60;99.90;;;;;;5207106;28;20032;-77
2022/03/23 06:26:05;;;;;;;0.85;0.85;;;7.00;99.90;;;;;;5206706;28;20021;-77
2022/03/23 06:28:37;;;;;;;3.22;2.53;;;7.40;99.90;;;;;;5202841;28;20041;-77
2022/03/23 06:31:09;;;;;;;0.95;0.95;;;7.70;99.90;;;;;;5201758;28;20049;-76
2022/03/23 06:33:43;;;;;;;1.25;1.25;;;8.00;99.90;;;;;;5201939;28;20020;-79
2022/03/23 06:36:15;;;;;;;;;;;8.40;99.90;;;;;;5206888;28;20191;-76
2022/03/23 06:38:50;;;;;;;1.40;1.38;;;8.70;99.90;;;;;;5205709;28;19920;-77
2022/03/23 06:41:23;;;;;;;1.30;1.30;;;9.00;99.90;;;;;;5215538;28;20222;-78
2022/03/23 06:44:01;;;;;;;2.60;2.50;;;9.00;99.90;;;;;;5221741;28;20044;-77
2022/03/23 06:46:32;;;;;;;1.35;1.33;;;9.00;99.90;;;;;;5185131;28;20016;-76
2022/03/23 06:49:14;;;;;;;0.90;0.90;;;9.00;99.90;;;;;;5216310;28;20017;-77
2022/03/23 06:51:51;;;;;;;1.20;1.20;;;9.10;99.90;;;;;;5187757;28;20020;-77
2022/03/23 06:54:28;;;;;;;2.35;2.20;;;9.20;99.90;;;;;;5205823;28;20025;-78
2022/03/23 06:57:02;;;;;;;2.55;1.63;;;9.20;99.90;;;;;;5194665;28;20033;-76
2022/03/23 06:59:33;;;;;;;1.33;1.33;;;9.30;99.90;;;;;;5207609;28;20029;-77
2022/03/23 07:02:10;;;;;;;0.80;0.80;;;9.50;99.90;;;;;;5208369;28;20489;-78
2022/03/23 07:04:45;;;;;;;1.48;1.48;;;9.60;99.90;;;;;;5191145;28;20365;-78
2022/03/23 07:07:20;;;;;;;1.25;1.25;;;9.90;99.90;;;;;;5194684;28;20078;-78
2022/03/23 07:09:54;;;;;;;2.13;2.03;;;10.10;99.90;;;;;;5206763;28;20051;-79
2022/03/23 07:12:26;;;;;;;;;;;10.10;99.90;;;;;;5196352;28;20040;-77
2022/03/23 07:15:04;;;;;;;1.00;1.00;;;10.20;99.90;;;;;;5193488;28;19909;-77
2022/03/23 07:17:41;;;;;;;1.55;1.55;;;10.20;99.90;;;;;;5187080;28;20029;-78
2022/03/23 07:20:15;;;;;;;2.20;2.10;;;10.30;99.90;;;;;;5196925;28;20291;-78
2022/03/23 07:22:52;;;;;;;2.40;2.30;;;10.50;99.90;;;;;;5174642;28;20045;-77
2022/03/23 07:25:29;;;;;;;1.13;1.13;;;10.30;99.90;;;;;;5182332;28;20384;-77
2022/03/23 07:28:06;;;;;;;14.02;4.40;;;9.90;99.90;;;;;;5193351;28;20051;-77
2022/03/23 07:30:41;;;;;;;2.50;2.40;;;9.70;99.90;;;;;;5202092;28;20037;-76
2022/03/23 07:33:13;;;;;;;1.00;1.00;;;9.40;99.90;;;;;;5217545;28;20055;-77
2022/03/23 07:35:44;;;;;;;0.85;0.85;;;9.40;99.90;;;;;;5214106;28;20044;-78
2022/03/23 07:38:16;;;;;;;1.42;1.40;;;10.00;99.90;;;;;;5188684;28;20044;-77
2022/03/23 07:40:48;;;;;;;0.82;0.82;;;10.70;99.90;;;;;;5200193;28;20045;-76
2022/03/23 07:43:27;;;;;;;1.55;1.45;;;11.40;99.90;;;;;;5185956;28;20350;-77
2022/03/23 07:45:59;;;;;;;1.25;1.25;;;12.30;99.90;;;;;;5196936;28;20051;-77
2022/03/23 07:48:31;;;;;;;1.15;1.15;;;12.50;99.90;;;;;;5220530;28;20025;-77
2022/03/23 07:51:03;;;;;;;1.80;1.70;;;12.90;99.90;;;;;;5203507;28;20043;-78
2022/03/23 07:53:34;;;;;;;1.52;1.52;;;13.40;99.90;;;;;;5202658;28;20025;-77
2022/03/23 07:56:09;;;;;;;1.30;1.23;;;13.50;99.90;;;;;;5200474;28;20043;-78
2022/03/23 07:58:44;;;;;;;0.77;0.77;;;13.70;99.90;;;;;;5213440;28;20039;-80
2022/03/23 08:01:16;;;;;;;2.30;2.20;;;14.10;99.90;;;;;;5191055;28;20047;-78
2022/03/23 08:03:51;;;;;;;1.25;1.25;;;14.30;99.90;;;;;;5201730;28;20620;-80
2022/03/23 08:06:28;;;;;;;1.45;1.45;;;14.60;99.90;;;;;;5187409;28;20049;-77
2022/03/23 08:09:06;;;;;;;1.65;1.65;;;14.70;99.90;;;;;;5176310;28;20037;-77
2022/03/23 08:11:43;;;;;;;1.38;1.35;;;15.00;99.90;;;;;;5201633;28;20037;-79
2022/03/23 08:14:15;;;;;;;1.85;1.75;;;15.30;99.90;;;;;;5184402;28;20044;-78
2022/03/23 08:16:47;;;;;;;1.77;1.73;;;15.40;99.90;;;;;;5219619;28;20043;-78
2022/03/23 08:19:23;;;;;;;2.42;2.22;;;15.40;99.90;;;;;;5216254;28;20031;-77
2022/03/23 08:21:57;;;;;;;1.63;1.55;;;15.00;99.90;;;;;;5188111;28;20029;-77
2022/03/23 08:24:34;;;;;;;0.70;0.70;;;14.90;99.90;;;;;;5203877;28;20024;-79
2022/03/23 08:27:08;;;;;;;2.35;2.15;;;14.70;99.90;;;;;;5199297;28;20041;-78
2022/03/23 08:29:40;;;;;;;1.02;1.02;;;14.90;99.90;;;;;;5217530;28;20049;-78
2022/03/23 08:32:22;;;;;;;1.92;1.83;;;14.80;99.90;;;;;;5215886;28;20027;-80
2022/03/23 08:34:55;;;;;;;1.70;1.33;;;15.50;99.90;;;;;;5219829;28;20314;-77
2022/03/23 08:37:26;;;;;;;2.30;2.20;;;16.10;99.90;;;;;;5209657;28;20025;-77
2022/03/23 08:40:02;;;;;;;1.35;1.35;;;16.60;99.90;;;;;;5217502;28;20027;-78
2022/03/23 08:42:39;;;;;;;1.70;1.60;;;16.30;99.20;;;;;;5215452;28;20051;-79
2022/03/23 08:45:15;;;;;;;2.80;2.55;;;16.10;98.20;;;;;;5201042;28;20330;-77
2022/03/23 08:47:54;;;;;;;1.40;1.38;;;16.30;99.20;;;;;;5196928;28;20362;-77
2022/03/23 08:50:25;;;;;;;2.55;2.42;;;16.20;99.90;;;;;;5192801;28;20041;-78
2022/03/23 08:52:59;;;;;;;1.63;1.55;;;16.90;99.90;;;;;;5228424;28;20236;-79
2022/03/23 08:55:31;;;;;;;1.20;1.17;;;16.50;97.50;;;;;;5214359;28;20245;-79
2022/03/23 08:58:06;;;;;;;1.92;1.80;;;16.60;97.20;;;;;;5233693;28;20028;-78
2022/03/23 09:00:41;;;;;;;2.20;2.05;;;16.60;98.70;;;;;;5212528;28;20035;-78
2022/03/23 09:03:18;;;;;;;1.00;1.00;;;16.80;97.50;;;;;;5194194;28;20043;-79
2022/03/23 09:05:52;;;;;;;1.42;1.35;;;17.80;98.30;;;;;;5177958;28;20113;-78
2022/03/23 09:08:32;;;;;;;1.35;1.30;;;17.50;97.30;;;;;;5206470;28;20064;-78
2022/03/23 09:11:07;;;;;;;2.03;1.92;;;17.50;97.00;;;;;;5177754;28;20041;-78
2022/03/23 09:13:44;;;;;;;2.00;1.48;;;17.90;96.20;;;;;;5192113;28;20041;-80
2022/03/23 09:16:16;;;;;;;1.13;0.98;;;18.00;95.90;;;;;;5192874;28;20350;-77
2022/03/23 09:18:53;;;;;;;1.58;1.48;;;18.30;95.90;;;;;;5202230;28;20338;-78
2022/03/23 09:21:30;;;;;;;2.58;1.77;;;18.40;95.20;;;;;;5176433;28;20033;-77
2022/03/23 09:24:04;;;;;;;2.72;1.77;;;17.50;95.40;;;;;;5207157;28;20341;-77
2022/03/23 09:26:35;;;;;;;1.10;1.10;;;17.90;95.80;;;;;;5179280;28;20056;-78
2022/03/23 09:29:11;;;;;;;1.70;1.60;;;18.20;94.70;;;;;;5221753;28;20403;-79
2022/03/23 09:31:43;;;;;;;0.47;0.47;;;18.00;94.90;;;;;;5195345;28;20049;-80
2022/03/23 09:34:23;;;;;;;0.95;0.95;;;18.30;95.50;;;;;;5183658;28;20037;-78
2022/03/23 09:39:48;;;;;;;0.63;0.63;;;18.60;95.00;;;;;;5208964;28;20380;-79
2022/03/23 09:42:24;;;;;;;1.65;1.55;;;18.80;95.40;;;;;;5187193;28;20349;-78
2022/03/23 09:44:57;;;;;;;0.68;0.68;;;18.40;95.90;;;;;;5195920;28;20055;-77
2022/03/23 09:47:31;;;;;;;2.72;1.90;;;18.90;95.10;;;;;;5180326;28;20043;-78
2022/03/23 09:50:06;;;;;;;1.50;1.40;;;19.60;95.30;;;;;;5225400;28;20048;-78
2022/03/23 09:52:38;;;;;;;2.00;1.90;;;20.20;95.30;;;;;;5185126;28;20037;-77
2022/03/23 09:55:11;;;;;;;8.50;1.35;;;20.00;93.50;;;;;;5212039;28;20512;-79
2022/03/23 09:57:43;;;;;;;2.22;2.13;;;20.60;93.50;;;;;;5199012;28;20036;-78
2022/03/23 10:00:20;;;;;;;1.90;1.40;;;20.20;92.80;;;;;;5214601;28;20039;-79
2022/03/23 10:03:00;;;;;;;1.10;1.10;;;19.80;92.10;;;;;;5196770;28;20025;-77
2022/03/23 10:06:31;;;;;;;1.35;1.25;;;19.90;94.30;;;;;;5178211;28;20037;-79
2022/03/23 10:09:47;;;;;;;1.45;1.38;;;20.80;92.40;;;;;;5197016;28;20055;-79
2022/03/23 10:13:15;;;;;;;1.77;1.60;;;20.80;91.30;;;;;;5217399;28;20048;-79
2022/03/23 10:16:46;;;;;;;1.98;1.80;;;20.30;92.00;;;;;;5212448;28;20035;-77
2022/03/23 10:19:18;;;;;;;1.48;1.40;;;20.70;91.20;;;;;;5193365;28;20037;-78
2022/03/23 10:21:52;;;;;;;0.77;0.77;;;20.80;92.50;;;;;;5211397;28;20047;-78
2022/03/23 10:24:29;;;;;;;0.88;0.88;;;21.50;91.30;;;;;;5178924;28;20039;-78
2022/03/23 10:27:23;;;;;;;1.70;1.60;;;21.80;91.20;;;;;;5195276;28;20052;-80
2022/03/23 10:29:57;;;;;;;2.22;1.80;;;23.30;91.20;;;;;;5215228;28;20037;-79
2022/03/23 10:32:43;;;;;;;1.75;1.65;;;24.00;89.20;;;;;;5197263;28;20031;-79
2022/03/23 10:35:18;;;;;;;1.88;1.73;;;23.80;86.90;;;;;;5199386;28;20028;-80
2022/03/23 10:37:50;;;;;;;2.25;2.15;;;23.60;84.10;;;;;;5209775;28;20511;-79
2022/03/23 10:40:26;;;;;;;1.42;1.33;;;23.10;86.90;;;;;;5193602;28;20036;-79
2022/03/23 10:43:07;;;;;;;1.77;1.67;;;24.00;88.70;;;;;;5203081;28;20024;-76
2022/03/23 10:45:47;;;;;;;1.30;1.30;;;25.30;86.30;;;;;;5196768;28;20041;-78
2022/03/23 10:48:28;;;;;;;1.13;1.02;;;24.50;81.20;;;;;;5188491;28;20033;-78
2022/03/23 10:51:02;;;;;;;1.80;1.70;;;25.00;82.70;;;;;;5203556;28;20494;-78
2022/03/23 10:53:46;;;;;;;0.68;0.68;;;24.50;80.20;;;;;;5229249;28;20060;-79
2022/03/23 10:56:41;;;;;;;1.50;1.33;;;23.70;80.40;;;;;;5184590;28;20041;-79
2022/03/23 10:59:22;;;;;;;1.20;1.20;;;23.40;84.00;;;;;;5200993;28;20028;-79
2022/03/23 11:02:05;;;;;;;1.02;1.02;;;23.60;82.50;;;;;;5217340;28;20016;-79
2022/03/23 11:04:47;;;;;;;2.00;1.88;;;25.70;78.60;;;;;;5184588;28;20146;-79
2022/03/23 11:07:35;;;;;;;1.80;1.70;;;25.90;78.10;;;;;;5179621;28;20030;-78
2022/03/23 11:16:33;;;;;;;1.13;1.02;;;26.60;77.60;;;;;;5144838;28;20035;-80
2022/03/23 11:19:16;;;;;;;1.63;1.52;;;27.90;79.50;;;;;;5145353;28;20224;-76
2022/03/23 11:22:17;;;;;;;3.50;2.00;;;28.80;77.10;;;;;;5146032;28;20031;-79
2022/03/23 11:24:52;;;;;;;4.13;2.75;;;28.30;74.60;;;;;;5192252;28;20355;-79
2022/03/23 11:27:24;;;;;;;;;;;27.40;73.80;;;;;;5211864;28;20029;-79
2022/03/23 11:29:57;;;;;;;1.52;1.45;;;27.70;74.70;;;;;;5221196;28;20372;-78
2022/03/23 11:32:38;;;;;;;1.25;1.25;;;27.30;75.30;;;;;;5177371;28;20368;-79
2022/03/23 11:35:10;;;;;;;1.52;1.42;;;28.00;74.80;;;;;;5207016;28;20033;-79
2022/03/23 11:37:47;;;;;;;1.67;1.58;;;28.20;71.50;;;;;;5173789;28;20483;-79
2022/03/23 11:40:20;;;;;;;6.68;1.65;;;26.10;74.60;;;;;;5194033;28;20033;-79
2022/03/23 11:42:54;;;;;;;1.67;1.58;;;25.40;74.70;;;;;;5187764;28;20242;-79
2022/03/23 11:45:47;;;;;;;2.75;1.90;;;25.90;75.20;;;;;;5203134;28;20029;-77
2022/03/23 11:48:43;;;;;;;1.85;1.75;;;27.30;73.50;;;;;;5181127;28;20388;-78
2022/03/23 11:51:36;;;;;;;3.00;2.13;;;27.20;73.70;;;;;;5186669;28;20047;-79
2022/03/23 11:55:37;;;;;;;2.45;2.25;;;26.60;72.60;;;;;;5195651;28;20041;-79
2022/03/23 11:58:14;;;;;;;1.25;1.23;;;27.40;73.30;;;;;;5222197;28;20021;-80
2022/03/23 12:00:56;;;;;;;1.55;1.45;;;27.00;71.90;;;;;;5199143;28;20037;-78
2022/03/23 12:03:57;;;;;;;2.70;2.45;;;26.70;72.10;;;;;;5190022;28;20029;-77
2022/03/23 12:06:44;;;;;;;2.72;1.92;;;27.60;72.70;;;;;;5202357;28;20406;-77
2022/03/23 12:09:36;;;;;;;0.95;0.93;;;28.10;73.10;;;;;;5206813;28;20230;-79
2022/03/23 12:12:30;;;;;;;2.35;2.15;;;28.20;70.00;;;;;;5208543;28;20036;-76
2022/03/23 12:15:23;;;;;;;2.78;2.58;;;28.40;71.70;;;;;;5174409;28;20235;-77
2022/03/23 12:17:54;;;;;;;1.15;1.15;;;27.70;69.40;;;;;;5203005;28;20058;-80
2022/03/23 12:20:37;;;;;;;1.67;1.58;;;28.00;71.70;;;;;;5196968;28;20026;-78
2022/03/23 12:23:34;;;;;;;1.42;1.30;;;27.90;69.20;;;;;;5192986;28;20051;-79
2022/03/23 12:26:36;;;;;;;2.67;2.22;;;28.70;69.60;;;;;;5198621;28;20034;-77
2022/03/23 12:29:29;;;;;;;4.65;3.13;;;29.80;68.70;;;;;;5204791;28;20253;-77
2022/03/23 12:32:14;;;;;;;2.05;1.70;;;28.70;66.30;;;;;;5193023;28;20137;-78
2022/03/23 12:34:55;;;;;;;1.60;1.50;;;29.00;69.40;;;;;;5191499;28;20033;-78
2022/03/23 12:37:45;;;;;;;1.42;1.33;;;30.50;66.80;;;;;;5210977;28;20467;-78
2022/03/23 12:40:22;;;;;;;1.38;1.27;;;30.50;66.40;;;;;;5210953;28;20041;-79
2022/03/23 12:43:03;;;;;;;0.73;0.68;;;28.80;66.90;;;;;;5194380;28;20041;-79
2022/03/23 12:45:40;;;;;;;1.48;1.38;;;28.40;66.50;;;;;;5203745;28;20035;-79
2022/03/23 13:00:09;;;;;;;1.20;1.13;;;29.00;64.70;;;;;;5236041;28;20031;-80
2022/03/23 13:02:42;;;;;;;7.77;1.27;;;29.20;65.10;;;;;;5223577;28;20036;-79
2022/03/23 13:05:22;;;;;;;1.67;1.58;;;29.30;64.30;;;;;;5199430;28;20053;-78
2022/03/23 13:07:54;;;;;;;1.27;1.27;;;28.90;65.70;;;;;;5210568;28;20041;-79
2022/03/23 13:10:30;;;;;;;1.30;1.27;;;29.90;63.60;;;;;;5226729;28;20029;-78
2022/03/23 13:13:10;;;;;;;1.33;1.30;;;30.70;64.10;;;;;;5227454;28;20035;-77
2022/03/23 13:15:42;;;;;;;1.30;1.20;;;29.70;63.50;;;;;;5192730;28;20047;-79
2022/03/23 13:18:16;;;;;;;1.40;1.30;;;30.00;63.10;;;;;;5206823;28;20048;-77
2022/03/23 13:20:50;;;;;;;1.60;1.50;;;30.50;63.60;;;;;;5210859;28;20329;-77
2022/03/23 13:23:28;;;;;;;0.73;0.73;;;29.70;62.50;;;;;;5201610;28;20049;-77
2022/03/23 13:26:24;;;;;;;1.60;1.50;;;28.60;63.10;;;;;;5219012;28;20468;-79
2022/03/23 13:29:05;;;;;;;1.95;1.80;;;29.50;65.30;;;;;;5206517;28;20044;-78
2022/03/23 13:31:42;;;;;;;1.23;1.13;;;29.40;63.70;;;;;;5184557;28;20040;-79
2022/03/23 13:34:18;;;;;;;6.68;3.05;;;29.70;63.20;;;;;;5218103;28;20048;-78
2022/03/23 13:36:51;;;;;;;0.50;0.50;;;29.80;62.80;;;;;;5188671;28;20051;-78
2022/03/23 13:39:22;;;;;;;1.00;1.00;;;27.80;63.50;;;;;;5196998;28;20246;-77
2022/03/23 13:44:59;;;;;;;1.20;1.20;;;29.60;62.80;;;;;;5211665;28;20033;-80
2022/03/23 13:47:38;;;;;;;1.52;1.05;;;29.60;61.60;;;;;;5207964;28;20025;-79
2022/03/23 13:50:13;;;;;;;1.63;1.52;;;30.60;62.90;;;;;;5184852;28;20056;-80
2022/03/23 13:52:48;;;;;;;1.98;1.88;;;29.10;61.30;;;;;;5209276;28;20041;-79
2022/03/23 13:55:20;;;;;;;1.02;1.02;;;29.30;60.40;;;;;;5197788;28;20044;-77
2022/03/23 13:57:51;;;;;;;1.48;1.38;;;29.10;61.20;;;;;;5212454;28;20055;-78
2022/03/23 14:00:26;;;;;;;1.80;1.70;;;28.70;61.10;;;;;;5230761;28;20318;-76
2022/03/23 14:03:01;;;;;;;2.00;1.65;;;29.20;60.90;;;;;;5197274;28;20045;-77
2022/03/23 14:05:38;;;;;;;;;;;28.70;60.20;;;;;;5202417;28;20048;-77
2022/03/23 14:08:12;;;;;;;1.15;1.05;;;27.80;60.70;;;;;;5215777;28;19919;-79
2022/03/23 14:10:45;;;;;;;0.80;0.75;;;28.30;60.80;;;;;;5217600;28;20387;-79
2022/03/23 14:13:22;;;;;;;1.00;1.00;;;27.30;60.50;;;;;;5226158;28;20214;-79
2022/03/23 14:15:57;;;;;;;2.30;1.02;;;27.00;61.90;;;;;;5194382;28;20377;-78
2022/03/23 14:18:32;;;;;;;0.90;0.90;;;26.30;62.80;;;;;;5227543;28;20043;-79
2022/03/23 14:21:05;;;;;;;1.20;0.93;;;25.50;62.90;;;;;;5226465;28;20193;-78